createdAt,value
2023-03-11T00:00:53.209Z,99273.22
2023-03-11T00:03:27.479Z,99286.13
2023-03-11T00:06:04.083Z,99291.28
2023-03-11T00:08:36.366Z,99301.91
2023-03-11T00:11:08.717Z,99310.50
2023-03-11T00:13:41.174Z,99315.19
2023-03-11T00:16:12.771Z,99329.38
2023-03-11T00:18:44.584Z,99324.66
2023-03-11T00:21:21.742Z,99332.66
2023-03-11T00:23:53.629Z,99340.16
2023-03-11T00:26:25.456Z,99340.88
2023-03-11T00:28:57.261Z,99362.44
2023-03-11T00:31:29.044Z,99354.53
2023-03-11T00:34:01.058Z,99360.91
2023-03-11T00:36:36.174Z,99372.75
2023-03-11T00:39:11.060Z,99372.53
2023-03-11T00:41:42.893Z,99381.09
2023-03-11T00:44:14.706Z,99383.16
2023-03-11T00:46:46.683Z,99389.00
2023-03-11T00:49:18.561Z,99392.84
2023-03-11T00:51:51.779Z,99393.59
2023-03-11T00:54:23.673Z,99409.09
2023-03-11T00:56:55.655Z,99412.47
2023-03-11T00:59:27.464Z,99419.41
2023-03-11T01:01:59.351Z,99422.03
2023-03-11T01:04:31.269Z,99423.19
2023-03-11T01:07:04.757Z,99421.53
2023-03-11T01:09:36.631Z,99422.88
2023-03-11T01:12:09.311Z,99417.03
2023-03-11T01:14:41.211Z,99421.78
2023-03-11T01:17:13.096Z,99435.66
2023-03-11T01:19:45.348Z,99435.66
2023-03-11T01:22:19.103Z,99450.47
2023-03-11T01:24:51.025Z,99458.28
2023-03-11T01:27:22.998Z,99461.50
2023-03-11T01:29:54.804Z,99467.00
2023-03-11T01:32:26.719Z,99474.66
2023-03-11T01:34:58.671Z,99478.22
2023-03-11T01:37:32.067Z,99490.53
2023-03-11T01:40:03.922Z,99478.72
2023-03-11T01:42:34.115Z,99496.81
2023-03-11T01:45:19.758Z,99503.84
2023-03-11T01:47:51.312Z,99518.31
2023-03-11T01:50:23.451Z,99521.81
2023-03-11T01:52:56.969Z,99520.13
2023-03-11T01:55:30.037Z,99537.31
2023-03-11T01:58:05.611Z,99531.69
2023-03-11T02:00:38.430Z,99538.28
2023-03-11T02:03:19.712Z,99547.97
2023-03-11T02:05:55.628Z,99557.16
2023-03-11T02:08:30.009Z,99558.00
2023-03-11T02:11:03.138Z,99560.28
2023-03-11T02:13:40.326Z,99560.63
2023-03-11T02:16:13.986Z,99564.69
2023-03-11T02:18:47.927Z,99574.28
2023-03-11T02:21:27.934Z,99574.38
2023-03-11T02:24:12.904Z,99567.94
2023-03-11T02:26:51.981Z,99570.09
2023-03-11T02:29:25.984Z,99565.31
2023-03-11T02:31:59.541Z,99583.97
2023-03-11T02:34:36.290Z,99579.69
2023-03-11T02:37:11.568Z,99591.59
2023-03-11T02:39:46.144Z,99596.16
2023-03-11T02:42:24.778Z,99590.91
2023-03-11T02:45:02.401Z,99597.34
2023-03-11T02:47:35.692Z,99599.75
2023-03-11T02:50:10.481Z,99611.00
2023-03-11T02:52:42.252Z,99611.22
2023-03-11T02:55:16.082Z,99620.69
2023-03-11T02:57:49.421Z,99627.97
2023-03-11T03:00:22.044Z,99623.75
2023-03-11T03:02:54.019Z,99612.53
2023-03-11T03:05:26.496Z,99618.03
2023-03-11T03:07:58.326Z,99632.28
2023-03-11T03:10:30.272Z,99635.84
2023-03-11T03:13:03.173Z,99635.63
2023-03-11T03:15:36.085Z,99633.47
2023-03-11T03:18:07.920Z,99634.78
2023-03-11T03:20:39.818Z,99640.88
2023-03-11T03:23:11.587Z,99654.97
2023-03-11T03:25:45.290Z,99656.16
2023-03-11T03:28:18.554Z,99660.84
2023-03-11T03:30:50.534Z,99662.03
2023-03-11T03:33:22.390Z,99675.78
2023-03-11T03:35:54.283Z,99675.78
2023-03-11T03:38:25.980Z,99677.44
2023-03-11T03:40:57.927Z,99687.63
2023-03-11T03:43:31.045Z,99686.44
2023-03-11T03:46:05.812Z,99692.78
2023-03-11T03:48:38.140Z,99699.25
2023-03-11T03:51:12.890Z,99705.44
2023-03-11T03:53:46.413Z,99719.06
2023-03-11T03:56:21.672Z,99713.06
2023-03-11T03:58:55.087Z,99724.91
2023-03-11T04:01:26.663Z,99720.13
2023-03-11T04:03:58.562Z,99724.53
2023-03-11T04:06:31.858Z,99731.25
2023-03-11T04:09:03.741Z,99738.19
2023-03-11T04:11:36.946Z,99742.94
2023-03-11T04:14:10.385Z,99746.09
2023-03-11T04:16:42.617Z,99753.38
2023-03-11T04:19:14.788Z,99755.53
2023-03-11T04:21:46.613Z,99751.81
2023-03-11T04:24:18.436Z,99759.94
2023-03-11T04:26:50.345Z,99763.84
2023-03-11T04:29:23.285Z,99761.72
2023-03-11T04:31:55.135Z,99761.81
2023-03-11T04:34:26.931Z,99757.91
2023-03-11T04:36:59.238Z,99767.09
2023-03-11T04:39:31.042Z,99776.31
2023-03-11T04:42:04.058Z,99770.47
2023-03-11T04:44:38.436Z,99768.44
2023-03-11T04:47:10.435Z,99771.16
2023-03-11T04:49:42.488Z,99774.97
2023-03-11T04:52:14.554Z,99781.69
2023-03-11T04:54:46.490Z,99788.88
2023-03-11T04:57:18.542Z,99789.59
2023-03-11T04:59:51.772Z,99794.00
2023-03-11T05:02:23.570Z,99805.22
2023-03-11T05:04:55.396Z,99809.41
2023-03-11T05:07:27.382Z,99818.47
2023-03-11T05:09:59.150Z,99820.16
2023-03-11T05:12:30.932Z,99830.09
2023-03-11T05:15:04.250Z,99829.59
2023-03-11T05:17:36.203Z,99827.97
2023-03-11T05:20:09.294Z,99835.63
2023-03-11T05:22:40.975Z,99834.69
2023-03-11T05:25:13.648Z,99842.59
2023-03-11T05:27:45.620Z,99843.91
2023-03-11T05:30:19.632Z,99851.81
2023-03-11T05:32:51.804Z,99859.03
2023-03-11T05:35:23.882Z,99853.16
2023-03-11T05:37:55.839Z,99862.38
2023-03-11T05:40:27.457Z,99872.69
2023-03-11T05:42:59.279Z,99879.09
2023-03-11T05:45:32.250Z,99875.44
2023-03-11T05:48:04.223Z,99872.50
2023-03-11T05:50:36.095Z,99882.78
2023-03-11T05:53:07.943Z,99877.72
2023-03-11T05:55:39.784Z,99878.38
2023-03-11T05:58:11.767Z,99891.00
2023-03-11T06:00:44.909Z,99885.03
2023-03-11T06:03:16.717Z,99894.78
2023-03-11T06:05:52.674Z,99897.72
2023-03-11T06:08:24.980Z,99899.19
2023-03-11T06:11:04.785Z,99903.84
2023-03-11T06:13:36.963Z,99904.66
2023-03-11T06:16:09.959Z,99918.03
2023-03-11T06:18:41.872Z,99920.44
2023-03-11T06:21:18.749Z,99920.63
2023-03-11T06:23:51.856Z,99924.31
2023-03-11T06:26:26.502Z,99930.41
2023-03-11T06:28:58.750Z,99930.91
2023-03-11T06:31:34.868Z,99938.69
2023-03-11T06:34:06.622Z,99941.66
2023-03-11T06:36:38.528Z,99939.16
2023-03-11T06:39:12.961Z,99947.53
2023-03-11T06:41:44.843Z,99952.78
2023-03-11T06:44:17.059Z,99961.22
2023-03-11T06:46:50.245Z,99957.41
2023-03-11T06:49:21.868Z,99973.91
2023-03-11T06:51:53.726Z,99975.47
2023-03-11T06:54:25.596Z,99977.78
2023-03-11T06:56:57.397Z,99985.28
2023-03-11T06:59:29.212Z,99998.19
2023-03-11T07:02:02.455Z,99986.53
2023-03-11T07:04:34.620Z,100000.31
2023-03-11T07:07:06.175Z,100000.69
2023-03-11T07:09:38.064Z,100003.56
2023-03-11T07:12:10.859Z,100008.09
2023-03-11T07:14:42.832Z,100023.34
2023-03-11T07:17:15.793Z,100021.88
2023-03-11T07:19:47.665Z,100032.72
2023-03-11T07:22:20.056Z,100040.28
2023-03-11T07:24:51.942Z,100044.69
2023-03-11T07:27:23.741Z,100052.50
2023-03-11T07:29:55.622Z,100054.38
2023-03-11T07:32:28.664Z,100059.53
2023-03-11T07:35:03.089Z,100071.63
2023-03-11T07:37:34.917Z,100076.03
2023-03-11T07:40:06.922Z,100083.22
2023-03-11T07:42:40.325Z,100083.50
2023-03-11T07:45:15.270Z,100093.06
2023-03-11T07:47:48.254Z,100101.38
2023-03-11T07:50:22.125Z,100109.25
2023-03-11T07:52:53.736Z,100110.13
2023-03-11T07:55:27.139Z,100119.91
2023-03-11T07:57:59.038Z,100126.53
2023-03-11T08:00:30.712Z,100123.59
2023-03-11T08:03:03.889Z,100134.09
2023-03-11T08:05:38.670Z,100130.72
2023-03-11T08:08:12.088Z,100132.50
2023-03-11T08:10:43.968Z,100132.72
2023-03-11T08:13:15.828Z,100144.63
2023-03-11T08:15:47.721Z,100149.25
2023-03-11T08:18:20.749Z,100150.31
2023-03-11T08:20:52.549Z,100149.34
2023-03-11T08:23:24.371Z,100147.66
2023-03-11T08:25:56.217Z,100161.66
2023-03-11T08:28:28.126Z,100171.00
2023-03-11T08:30:59.930Z,100173.47
2023-03-11T08:33:32.931Z,100177.03
2023-03-11T08:36:04.990Z,100181.13
2023-03-11T08:38:36.880Z,100185.66
2023-03-11T08:41:09.347Z,100187.28
2023-03-11T08:43:42.248Z,100194.41
2023-03-11T08:46:21.227Z,100193.31
2023-03-11T08:48:55.310Z,100194.47
2023-03-11T08:51:27.244Z,100193.78
2023-03-11T08:53:59.242Z,100201.22
2023-03-11T08:56:31.328Z,100197.91
2023-03-11T08:59:03.569Z,100212.56
2023-03-11T09:01:35.452Z,100218.81
2023-03-11T09:04:09.671Z,100221.59
2023-03-11T09:06:44.752Z,100223.69
2023-03-11T09:09:20.330Z,100220.81
2023-03-11T09:11:51.968Z,100221.53
2023-03-11T09:14:23.789Z,100236.66
2023-03-11T09:16:55.717Z,100237.88
2023-03-11T09:19:28.897Z,100241.25
2023-03-11T09:22:02.854Z,100242.72
2023-03-11T09:24:36.082Z,100243.84
2023-03-11T09:27:07.665Z,100253.13
2023-03-11T09:29:39.657Z,100249.66
2023-03-11T09:32:15.162Z,100242.88
2023-03-11T09:34:48.101Z,100252.28
2023-03-11T09:37:19.943Z,100259.53
2023-03-11T09:39:51.844Z,100264.13
2023-03-11T09:42:35.142Z,100252.16
2023-03-11T09:45:16.581Z,100251.91
2023-03-11T09:48:08.243Z,100255.78
2023-03-11T09:50:52.830Z,100269.47
2023-03-11T09:53:33.957Z,100272.13
2023-03-11T09:56:10.402Z,100277.16
2023-03-11T09:58:47.985Z,100274.50
2023-03-11T10:01:27.573Z,100282.91
2023-03-11T10:04:09.821Z,100287.63
2023-03-11T10:06:46.020Z,100289.69
2023-03-11T10:09:34.368Z,100287.88
2023-03-11T10:12:19.462Z,100295.34
2023-03-11T10:15:09.348Z,100288.97
2023-03-11T10:18:02.183Z,100289.19
2023-03-11T10:20:43.857Z,100286.34
2023-03-11T10:23:33.690Z,100294.50
2023-03-11T10:26:13.088Z,100292.34
2023-03-11T10:28:52.113Z,100298.81
2023-03-11T10:31:32.828Z,100298.13
2023-03-11T10:34:15.489Z,100299.19
2023-03-11T10:36:58.804Z,100308.44
2023-03-11T10:39:33.703Z,100295.72
2023-03-11T10:42:12.779Z,100294.50
2023-03-11T10:44:46.743Z,100302.34
2023-03-11T10:47:25.260Z,100299.09
2023-03-11T10:49:57.182Z,100307.22
2023-03-11T10:52:29.146Z,100308.69
2023-03-11T10:55:07.223Z,100309.88
2023-03-11T10:57:41.373Z,100307.97
2023-03-11T11:00:29.021Z,100310.13
2023-03-11T11:03:02.059Z,100306.16
2023-03-11T11:05:37.811Z,100321.44
2023-03-11T11:08:16.994Z,100315.16
2023-03-11T11:10:59.542Z,100318.16
2023-03-11T11:13:36.033Z,100315.97
2023-03-11T11:16:20.808Z,100328.59
2023-03-11T11:18:58.664Z,100322.81
2023-03-11T11:21:39.277Z,100336.25
2023-03-11T11:24:24.987Z,100329.03
2023-03-11T11:27:20.348Z,100334.56
2023-03-11T11:30:14.654Z,100328.44
2023-03-11T11:32:46.483Z,100326.53
2023-03-11T11:35:20.904Z,100322.19
2023-03-11T11:37:56.668Z,100329.03
2023-03-11T11:40:36.013Z,100334.09
2023-03-11T11:43:18.025Z,100320.34
2023-03-11T11:45:58.764Z,100329.06
2023-03-11T11:48:43.990Z,100330.84
2023-03-11T11:51:23.000Z,100326.97
2023-03-11T11:54:02.659Z,100337.56
2023-03-11T11:56:34.706Z,100333.72
2023-03-11T11:59:10.597Z,100334.38
2023-03-11T12:01:57.022Z,100320.75
2023-03-11T12:04:50.346Z,100316.88
2023-03-11T12:08:06.650Z,100327.28
2023-03-11T12:10:45.164Z,100331.53
2023-03-11T12:13:50.046Z,100330.75
2023-03-11T12:16:37.768Z,100328.81
2023-03-11T12:19:21.726Z,100318.50
2023-03-11T12:22:28.115Z,100321.41
2023-03-11T12:25:23.248Z,100322.63
2023-03-11T12:27:59.509Z,100322.22
2023-03-11T12:30:38.258Z,100328.69
2023-03-11T12:33:19.752Z,100322.47
2023-03-11T12:36:00.598Z,100322.72
2023-03-11T12:38:37.721Z,100327.00
2023-03-11T12:41:29.006Z,100330.66
2023-03-11T12:44:14.105Z,100327.50
2023-03-11T12:47:29.741Z,100325.41
2023-03-11T12:50:40.669Z,100325.13
2023-03-11T12:53:21.282Z,100333.22
2023-03-11T12:56:14.671Z,100334.09
2023-03-11T12:59:25.236Z,100327.84
2023-03-11T13:02:14.736Z,100325.25
2023-03-11T13:04:58.730Z,100328.72
2023-03-11T13:08:01.074Z,100333.22
2023-03-11T13:10:42.954Z,100333.22
2023-03-11T13:13:39.919Z,100345.63
2023-03-11T13:16:42.138Z,100340.78
2023-03-11T13:19:38.859Z,100350.38
2023-03-11T13:22:43.433Z,100354.06
2023-03-11T13:25:32.027Z,100351.97
2023-03-11T13:28:42.588Z,100366.56
2023-03-11T13:31:40.158Z,100362.13
2023-03-11T13:34:18.857Z,100353.31
2023-03-11T13:37:13.756Z,100358.78
2023-03-11T13:40:14.100Z,100360.50
2023-03-11T13:42:51.776Z,100359.66
2023-03-11T13:45:36.157Z,100363.50
2023-03-11T13:48:15.885Z,100372.16
2023-03-11T13:50:54.162Z,100355.88
2023-03-11T13:53:31.085Z,100367.25
2023-03-11T13:56:05.632Z,100359.00
2023-03-11T13:58:37.184Z,100367.28
2023-03-11T14:01:18.311Z,100371.16
2023-03-11T14:03:52.773Z,100369.78
2023-03-11T14:06:25.189Z,100376.53
2023-03-11T14:09:01.091Z,100378.53
2023-03-11T14:11:34.739Z,100383.28
2023-03-11T14:14:36.317Z,100378.78
2023-03-11T14:17:13.948Z,100387.72
2023-03-11T14:20:07.600Z,100374.41
2023-03-11T14:22:39.702Z,100373.88
2023-03-11T14:25:20.751Z,100377.00
2023-03-11T14:28:08.623Z,100376.03
2023-03-11T14:30:42.096Z,100380.22
2023-03-11T14:33:24.625Z,100386.59
2023-03-11T14:36:01.477Z,100381.31
2023-03-11T14:38:35.665Z,100394.75
2023-03-11T14:41:14.206Z,100399.50
2023-03-11T14:43:53.671Z,100393.78
2023-03-11T14:46:30.861Z,100392.78
2023-03-11T14:49:08.616Z,100400.75
2023-03-11T14:51:42.333Z,100400.75
2023-03-11T14:54:24.304Z,100396.47
2023-03-11T14:57:05.552Z,100406.09
2023-03-11T14:59:41.927Z,100406.19
2023-03-11T15:02:35.689Z,100399.97
2023-03-11T15:05:17.804Z,100405.84
2023-03-11T15:07:51.678Z,100408.41
2023-03-11T15:10:25.212Z,100412.59
2023-03-11T15:13:11.731Z,100418.53
2023-03-11T15:15:45.966Z,100408.81
2023-03-11T15:18:27.254Z,100413.50
2023-03-11T15:21:18.542Z,100410.66
2023-03-11T15:23:53.871Z,100411.34
2023-03-11T15:26:30.912Z,100410.50
2023-03-11T15:29:13.956Z,100401.47
2023-03-11T15:31:50.253Z,100406.78
2023-03-11T15:34:35.129Z,100400.59
2023-03-11T15:37:22.733Z,100407.97
2023-03-11T15:39:58.423Z,100407.13
2023-03-11T15:42:31.369Z,100410.84
2023-03-11T15:45:30.127Z,100393.81
2023-03-11T15:48:03.227Z,100405.22
2023-03-11T15:50:52.406Z,100403.63
2023-03-11T15:53:27.160Z,100397.50
2023-03-11T15:56:07.981Z,100397.66
2023-03-11T15:58:41.043Z,100400.22
2023-03-11T16:01:12.904Z,100404.28
2023-03-11T16:03:46.204Z,100414.91
2023-03-11T16:06:18.151Z,100414.53
2023-03-11T16:08:50.037Z,100412.50
2023-03-11T16:11:22.429Z,100421.13
2023-03-11T16:13:54.295Z,100418.41
2023-03-11T16:16:26.438Z,100415.09
2023-03-11T16:18:59.715Z,100419.53
2023-03-11T16:21:41.147Z,100418.09
2023-03-11T16:24:21.894Z,100421.50
2023-03-11T16:26:56.784Z,100423.22
2023-03-11T16:29:28.655Z,100422.13
2023-03-11T16:32:00.501Z,100420.59
2023-03-11T16:34:33.374Z,100430.09
2023-03-11T16:37:05.302Z,100429.28
2023-03-11T16:39:38.808Z,100424.72
2023-03-11T16:42:10.831Z,100427.84
2023-03-11T16:44:42.608Z,100430.75
2023-03-11T16:47:14.442Z,100431.72
2023-03-11T16:49:50.390Z,100431.94
2023-03-11T16:52:23.422Z,100445.28
2023-03-11T16:54:55.277Z,100434.72
2023-03-11T16:57:27.122Z,100446.38
2023-03-11T16:59:59.134Z,100449.41
2023-03-11T17:02:31.269Z,100447.22
2023-03-11T17:05:05.709Z,100443.03
2023-03-11T17:07:39.903Z,100449.91
2023-03-11T17:10:14.492Z,100451.22
2023-03-11T17:12:46.376Z,100453.00
2023-03-11T17:15:18.438Z,100448.34
2023-03-11T17:17:51.432Z,100447.25
2023-03-11T17:20:25.229Z,100449.63
2023-03-11T17:22:57.109Z,100449.75
2023-03-11T17:25:29.024Z,100450.69
2023-03-11T17:28:01.017Z,100451.69
2023-03-11T17:30:37.161Z,100454.31
2023-03-11T17:33:12.441Z,100455.38
2023-03-11T17:35:46.209Z,100459.84
2023-03-11T17:38:19.580Z,100461.97
2023-03-11T17:40:51.393Z,100471.56
2023-03-11T17:43:25.297Z,100462.41
2023-03-11T17:45:59.110Z,100474.22
2023-03-11T17:48:30.919Z,100475.59
2023-03-11T17:51:05.969Z,100475.81
2023-03-11T17:53:38.078Z,100480.38
2023-03-11T17:56:13.191Z,100481.47
2023-03-11T17:58:45.104Z,100478.78
2023-03-11T18:01:20.754Z,100485.31
2023-03-11T18:03:53.664Z,100491.69
2023-03-11T18:06:28.546Z,100489.38
2023-03-11T18:09:00.335Z,100499.84
2023-03-11T18:11:33.477Z,100499.50
2023-03-11T18:14:07.197Z,100503.50
2023-03-11T18:16:40.295Z,100499.63
2023-03-11T18:19:12.463Z,100502.25
2023-03-11T18:21:45.704Z,100505.22
2023-03-11T18:24:17.925Z,100503.81
2023-03-11T18:26:49.908Z,100495.03
2023-03-11T18:29:21.945Z,100500.78
2023-03-11T18:31:53.788Z,100501.75
2023-03-11T18:34:25.662Z,100511.22
2023-03-11T18:36:58.797Z,100510.88
2023-03-11T18:39:30.747Z,100519.03
2023-03-11T18:42:03.110Z,100516.13
2023-03-11T18:44:36.918Z,100517.09
2023-03-11T18:47:09.130Z,100517.72
2023-03-11T18:49:41.029Z,100514.91
2023-03-11T18:52:14.967Z,100508.56
2023-03-11T18:54:47.030Z,100508.38
2023-03-11T18:57:19.070Z,100504.25
2023-03-11T18:59:52.435Z,100512.50
2023-03-11T19:02:24.359Z,100505.00
2023-03-11T19:04:56.420Z,100508.56
2023-03-11T19:07:30.757Z,100509.94
2023-03-11T19:10:02.627Z,100511.84
2023-03-11T19:12:34.485Z,100509.63
2023-03-11T19:15:06.556Z,100504.50
2023-03-11T19:17:38.496Z,100504.34
2023-03-11T19:20:12.932Z,100506.50
2023-03-11T19:22:45.920Z,100503.31
2023-03-11T19:25:19.115Z,100494.91
2023-03-11T19:27:50.835Z,100497.00
2023-03-11T19:30:22.940Z,100500.59
2023-03-11T19:32:54.761Z,100506.81
2023-03-11T19:35:27.717Z,100506.19
2023-03-11T19:38:00.790Z,100511.78
2023-03-11T19:40:33.412Z,100510.31
2023-03-11T19:43:05.949Z,100510.72
2023-03-11T19:45:39.676Z,100516.22
2023-03-11T19:48:13.213Z,100523.38
2023-03-11T19:50:45.320Z,100523.38
2023-03-11T19:53:19.334Z,100532.84
2023-03-11T19:55:54.365Z,100527.59
2023-03-11T19:58:30.525Z,100530.13
2023-03-11T20:01:03.863Z,100533.41
2023-03-11T20:03:35.758Z,100530.53
2023-03-11T20:06:13.434Z,100531.50
2023-03-11T20:08:47.343Z,100527.44
2023-03-11T20:11:19.350Z,100535.16
2023-03-11T20:13:51.468Z,100530.28
2023-03-11T20:16:24.166Z,100529.44
2023-03-11T20:18:56.075Z,100531.34
2023-03-11T20:21:28.076Z,100522.09
2023-03-11T20:24:01.675Z,100519.13
2023-03-11T20:26:33.642Z,100517.84
2023-03-11T20:29:06.273Z,100523.66
2023-03-11T20:31:38.164Z,100519.97
2023-03-11T20:34:10.451Z,100523.75
2023-03-11T20:36:42.648Z,100531.78
2023-03-11T20:39:16.042Z,100535.13
2023-03-11T20:41:47.805Z,100539.75
2023-03-11T20:44:19.760Z,100529.72
2023-03-11T20:46:51.882Z,100533.22
2023-03-11T20:49:23.551Z,100539.53
2023-03-11T20:51:55.592Z,100539.53
2023-03-11T20:54:28.552Z,100543.66
2023-03-11T20:57:00.484Z,100543.09
2023-03-11T20:59:32.407Z,100540.47
2023-03-11T21:02:06.330Z,100541.81
2023-03-11T21:04:41.120Z,100533.06
2023-03-11T21:07:13.062Z,100531.91
2023-03-11T21:09:46.156Z,100534.25
2023-03-11T21:12:18.299Z,100528.13
2023-03-11T21:14:50.485Z,100532.94
2023-03-11T21:17:22.575Z,100532.09
2023-03-11T21:19:54.429Z,100531.53
2023-03-11T21:22:26.310Z,100542.19
2023-03-11T21:24:59.925Z,100536.91
2023-03-11T21:27:31.813Z,100549.13
2023-03-11T21:30:04.304Z,100539.56
2023-03-11T21:32:36.346Z,100545.50
2023-03-11T21:35:09.709Z,100551.63
2023-03-11T21:37:41.641Z,100541.09
2023-03-11T21:40:15.956Z,100554.13
2023-03-11T21:42:47.851Z,100556.97
2023-03-11T21:45:19.870Z,100550.97
2023-03-11T21:47:51.827Z,100549.94
2023-03-11T21:50:23.926Z,100552.47
2023-03-11T21:52:55.673Z,100549.28
2023-03-11T21:55:29.274Z,100552.00
2023-03-11T21:58:01.013Z,100552.63
2023-03-11T22:00:33.284Z,100553.88
2023-03-11T22:03:05.088Z,100552.19
2023-03-11T22:05:36.831Z,100548.63
2023-03-11T22:08:09.068Z,100553.03
2023-03-11T22:10:42.412Z,100550.31
2023-03-11T22:13:14.292Z,100554.47
2023-03-11T22:15:46.368Z,100557.78
2023-03-11T22:18:18.048Z,100560.88
2023-03-11T22:20:49.898Z,100564.34
2023-03-11T22:23:21.668Z,100559.56
2023-03-11T22:25:55.109Z,100563.31
2023-03-11T22:28:27.267Z,100576.06
2023-03-11T22:30:59.184Z,100568.50
2023-03-11T22:33:31.408Z,100567.91
2023-03-11T22:36:07.667Z,100569.22
2023-03-11T22:38:42.231Z,100567.53
2023-03-11T22:41:19.177Z,100566.13
2023-03-11T22:43:51.011Z,100563.06
2023-03-11T22:46:22.962Z,100561.16
2023-03-11T22:48:54.855Z,100564.56
2023-03-11T22:51:26.842Z,100563.50
2023-03-11T22:53:58.670Z,100565.00
2023-03-11T22:56:31.629Z,100566.88
2023-03-11T22:59:03.569Z,100562.19
2023-03-11T23:01:35.944Z,100567.53
2023-03-11T23:04:07.837Z,100564.63
2023-03-11T23:06:39.661Z,100560.59
2023-03-11T23:09:11.586Z,100562.66
2023-03-11T23:11:44.860Z,100557.03
2023-03-11T23:14:16.979Z,100570.56
2023-03-11T23:16:48.998Z,100558.53
2023-03-11T23:19:20.786Z,100572.66
2023-03-11T23:21:52.562Z,100567.41
2023-03-11T23:24:24.591Z,100572.47
2023-03-11T23:26:57.758Z,100568.53
2023-03-11T23:29:29.766Z,100570.03
2023-03-11T23:32:01.444Z,100568.91
2023-03-11T23:34:33.268Z,100572.38
2023-03-11T23:37:05.987Z,100574.91
2023-03-11T23:39:37.614Z,100569.84
2023-03-11T23:42:24.558Z,100577.94
2023-03-11T23:44:57.796Z,100579.25
2023-03-11T23:47:29.746Z,100573.78
2023-03-11T23:50:03.150Z,100585.44
2023-03-11T23:52:34.991Z,100578.97
2023-03-11T23:55:08.417Z,100579.97
2023-03-11T23:57:41.914Z,100580.56
